createdAt,value
2022-11-15T00:02:46.416Z,55.63
2022-11-15T00:08:07.908Z,46.30
2022-11-15T00:13:31.980Z,52.67
2022-11-15T00:18:53.548Z,46.77
2022-11-15T00:24:14.641Z,50.73
2022-11-15T00:29:38.771Z,57.10
2022-11-15T00:35:00.178Z,59.83
2022-11-15T00:40:21.463Z,49.87
2022-11-15T00:45:44.151Z,49.33
2022-11-15T00:51:05.447Z,46.57
2022-11-15T00:56:26.911Z,53.73
2022-11-15T01:01:50.060Z,45.00
2022-11-15T01:07:11.377Z,36.30
2022-11-15T01:12:33.492Z,43.33
2022-11-15T01:17:56.532Z,47.83
2022-11-15T01:23:17.995Z,42.97
2022-11-15T01:28:40.729Z,50.97
2022-11-15T01:34:03.483Z,44.17
2022-11-15T01:39:25.368Z,42.50
2022-11-15T01:44:49.897Z,42.63
2022-11-15T01:50:16.513Z,41.70
2022-11-15T01:55:37.847Z,41.97
2022-11-15T02:00:59.238Z,42.73
2022-11-15T02:06:23.726Z,40.00
2022-11-15T02:11:47.339Z,40.47
2022-11-15T02:17:23.059Z,41.53
2022-11-15T02:23:05.631Z,39.13
2022-11-15T02:28:53.119Z,40.13
2022-11-15T02:34:22.362Z,35.20
2022-11-15T02:39:48.914Z,36.37
2022-11-15T02:45:15.629Z,36.97
2022-11-15T02:50:38.343Z,36.43
2022-11-15T02:55:59.962Z,32.50
2022-11-15T03:01:31.432Z,35.27
2022-11-15T03:06:59.645Z,23.03
2022-11-15T03:12:35.958Z,22.90
2022-11-15T03:18:02.846Z,27.33
2022-11-15T03:23:27.506Z,33.07
2022-11-15T03:28:55.092Z,27.23
2022-11-15T03:34:23.686Z,33.63
2022-11-15T03:39:46.783Z,29.63
2022-11-15T03:45:17.325Z,33.37
2022-11-15T03:50:39.202Z,32.80
2022-11-15T03:56:02.226Z,33.07
2022-11-15T04:01:23.888Z,30.53
2022-11-15T04:06:45.178Z,27.20
2022-11-15T04:12:08.398Z,35.43
2022-11-15T04:17:30.074Z,33.53
2022-11-15T04:23:12.559Z,38.37
2022-11-15T04:28:35.725Z,33.80
2022-11-15T04:33:57.486Z,33.03
2022-11-15T04:39:19.155Z,31.03
2022-11-15T04:44:41.732Z,32.50
2022-11-15T04:50:03.051Z,32.57
2022-11-15T04:55:24.467Z,32.93
2022-11-15T05:00:47.289Z,28.40
2022-11-15T05:06:09.176Z,28.83
2022-11-15T05:11:30.755Z,33.23
2022-11-15T05:16:53.580Z,36.63
2022-11-15T05:22:15.260Z,33.43
2022-11-15T05:27:36.899Z,38.10
2022-11-15T05:32:59.798Z,36.83
2022-11-15T05:38:21.650Z,35.63
2022-11-15T05:43:44.349Z,38.27
2022-11-15T05:49:10.201Z,40.07
2022-11-15T05:54:33.214Z,39.47
2022-11-15T05:59:56.472Z,42.13
2022-11-15T06:05:19.291Z,39.17
2022-11-15T06:10:40.821Z,31.80
2022-11-15T06:16:02.403Z,34.73
2022-11-15T06:21:25.301Z,37.47
2022-11-15T06:26:46.832Z,34.53
2022-11-15T06:32:08.186Z,34.47
2022-11-15T06:37:30.811Z,40.93
2022-11-15T06:42:52.050Z,43.17
2022-11-15T06:48:13.252Z,38.73
2022-11-15T06:53:36.143Z,40.43
2022-11-15T06:58:57.864Z,42.33
2022-11-15T07:04:19.307Z,42.17
2022-11-15T07:09:41.932Z,34.10
2022-11-15T07:15:03.239Z,42.13
2022-11-15T07:20:24.497Z,30.57
2022-11-15T07:25:47.105Z,29.70
2022-11-15T07:31:10.542Z,29.27
2022-11-15T07:36:31.810Z,36.53
2022-11-15T07:42:14.639Z,44.90
2022-11-15T07:47:35.807Z,37.37
2022-11-15T07:52:57.541Z,36.77
2022-11-15T07:58:20.409Z,34.23
2022-11-15T08:03:42.137Z,30.77
2022-11-15T08:09:03.618Z,29.27
2022-11-15T08:14:26.674Z,33.17
2022-11-15T08:19:48.935Z,25.00
2022-11-15T08:25:10.399Z,27.17
2022-11-15T08:30:38.310Z,33.70
2022-11-15T08:35:59.820Z,35.83
2022-11-15T08:41:27.887Z,43.47
2022-11-15T08:46:50.736Z,48.50
2022-11-15T08:52:12.236Z,40.90
2022-11-15T08:57:33.730Z,45.83
2022-11-15T09:02:56.623Z,33.63
2022-11-15T09:08:46.943Z,58.50
2022-11-15T09:13:59.427Z,32.30
2022-11-15T09:19:21.909Z,18.93
2022-11-15T09:24:43.816Z,27.97
2022-11-15T09:30:06.141Z,23.93
2022-11-15T09:35:29.223Z,25.80
2022-11-15T09:41:21.022Z,26.47
2022-11-15T09:46:54.596Z,33.83
2022-11-15T09:51:59.268Z,25.90
2022-11-15T09:57:10.528Z,33.10
2022-11-15T10:02:33.360Z,21.57
2022-11-15T10:07:48.747Z,16.43
2022-11-15T10:12:53.791Z,18.17
2022-11-15T10:18:08.841Z,16.50
2022-11-15T10:23:16.690Z,29.47
2022-11-15T10:28:27.980Z,32.03
2022-11-15T10:33:34.781Z,32.70
2022-11-15T10:38:54.766Z,36.90
2022-11-15T10:44:13.708Z,32.03
2022-11-15T10:49:18.439Z,34.00
2022-11-15T10:54:28.033Z,40.37
2022-11-15T10:59:38.757Z,34.30
2022-11-15T11:04:51.922Z,36.77
2022-11-15T11:10:17.717Z,49.47
2022-11-15T11:15:31.406Z,31.60
2022-11-15T11:20:41.383Z,33.80
2022-11-15T11:25:57.516Z,34.90
2022-11-15T11:31:14.148Z,30.97
2022-11-15T11:36:27.539Z,30.33
2022-11-15T11:41:45.666Z,34.27
2022-11-15T11:46:57.507Z,33.60
2022-11-15T11:52:07.570Z,32.00
2022-11-15T11:57:21.946Z,33.53
2022-11-15T12:02:31.500Z,38.10
2022-11-15T12:07:37.250Z,34.50
2022-11-15T12:12:49.640Z,34.43
2022-11-15T12:17:53.141Z,36.67
2022-11-15T12:23:00.196Z,29.13
2022-11-15T12:28:13.699Z,31.27
2022-11-15T12:33:35.167Z,30.37
2022-11-15T12:38:57.607Z,30.90
2022-11-15T12:44:02.849Z,32.17
2022-11-15T12:49:12.567Z,34.20
2022-11-15T12:54:56.814Z,31.50
2022-11-15T13:00:04.961Z,28.20
2022-11-15T13:06:00.753Z,33.70
2022-11-15T13:11:53.150Z,29.60
2022-11-15T13:17:00.688Z,31.17
2022-11-15T13:22:29.300Z,29.43
2022-11-15T13:27:33.257Z,31.30
2022-11-15T13:32:36.243Z,33.37
2022-11-15T13:37:40.944Z,29.70
2022-11-15T13:42:45.892Z,32.40
2022-11-15T13:47:55.927Z,33.03
2022-11-15T13:53:04.940Z,36.20
2022-11-15T13:58:08.108Z,32.03
2022-11-15T14:03:20.021Z,38.90
2022-11-15T14:08:26.375Z,29.00
2022-11-15T14:13:31.352Z,31.40
2022-11-15T14:18:45.978Z,31.00
2022-11-15T14:23:51.645Z,32.90
2022-11-15T14:28:54.638Z,32.27
2022-11-15T14:33:57.562Z,32.23
2022-11-15T14:39:02.330Z,31.30
2022-11-15T14:44:06.356Z,32.57
2022-11-15T14:49:09.476Z,31.30
2022-11-15T14:54:13.885Z,32.33
2022-11-15T14:59:16.819Z,31.53
2022-11-15T15:04:19.763Z,31.33
2022-11-15T15:09:24.038Z,52.27
2022-11-15T15:14:27.001Z,37.63
2022-11-15T15:19:29.966Z,35.83
2022-11-15T15:24:34.376Z,36.13
2022-11-15T15:29:37.359Z,31.80
2022-11-15T15:34:40.894Z,27.47
2022-11-15T15:39:45.235Z,32.90
2022-11-15T15:44:48.211Z,34.97
2022-11-15T15:49:52.609Z,33.93
2022-11-15T15:54:56.899Z,34.07
2022-11-15T15:59:59.813Z,33.10
2022-11-15T16:05:03.097Z,34.77
2022-11-15T16:10:19.580Z,52.83
2022-11-15T16:15:25.062Z,39.50
2022-11-15T16:20:37.567Z,36.83
2022-11-15T16:25:44.141Z,31.33
2022-11-15T16:30:50.000Z,36.60
2022-11-15T16:35:57.011Z,36.20
2022-11-15T16:41:01.780Z,39.80
2022-11-15T16:46:13.540Z,33.27
2022-11-15T16:51:17.802Z,31.20
2022-11-15T16:56:25.918Z,26.90
2022-11-15T17:01:30.613Z,30.73
2022-11-15T17:06:33.610Z,29.93
2022-11-15T17:11:38.006Z,33.33
2022-11-15T17:16:43.535Z,27.87
2022-11-15T17:21:49.542Z,46.73
2022-11-15T17:26:53.870Z,37.43
2022-11-15T17:31:56.930Z,30.23
2022-11-15T17:37:00.049Z,36.27
2022-11-15T17:42:04.382Z,27.17
2022-11-15T17:47:08.555Z,33.03
2022-11-15T17:52:11.805Z,34.80
2022-11-15T17:57:16.131Z,37.17
2022-11-15T18:02:19.503Z,40.37
2022-11-15T18:07:22.516Z,34.10
2022-11-15T18:12:26.929Z,27.70
2022-11-15T18:17:29.815Z,28.63
2022-11-15T18:22:32.825Z,31.10
2022-11-15T18:27:38.285Z,33.23
2022-11-15T18:32:41.226Z,33.70
2022-11-15T18:37:44.208Z,30.03
2022-11-15T18:42:48.670Z,30.47
2022-11-15T18:47:52.344Z,31.67
2022-11-15T18:52:55.531Z,33.70
2022-11-15T18:57:59.858Z,31.50
2022-11-15T19:03:02.807Z,34.93
2022-11-15T19:08:05.965Z,32.53
2022-11-15T19:13:10.291Z,29.50
2022-11-15T19:18:13.255Z,33.80
2022-11-15T19:23:16.425Z,27.27
2022-11-15T19:28:20.899Z,33.47
2022-11-15T19:33:27.647Z,34.17
2022-11-15T19:38:32.433Z,32.00
2022-11-15T19:43:37.174Z,30.33
2022-11-15T19:48:40.728Z,27.07
2022-11-15T19:53:44.465Z,28.73
2022-11-15T19:58:52.117Z,28.40
2022-11-15T20:03:57.827Z,28.30
2022-11-15T20:09:01.107Z,28.80
2022-11-15T20:14:06.591Z,28.87
2022-11-15T20:19:12.309Z,27.20
2022-11-15T20:24:16.276Z,28.07
2022-11-15T20:29:21.196Z,33.87
2022-11-15T20:34:24.230Z,27.80
2022-11-15T20:39:27.340Z,31.23
2022-11-15T20:44:31.800Z,36.90
2022-11-15T20:49:34.874Z,32.40
2022-11-15T20:54:38.237Z,29.67
2022-11-15T20:59:42.509Z,28.73
2022-11-15T21:04:45.643Z,30.10
2022-11-15T21:10:06.666Z,29.80
2022-11-15T21:15:12.194Z,23.17
2022-11-15T21:20:16.314Z,23.47
2022-11-15T21:25:19.264Z,28.77
2022-11-15T21:30:23.557Z,26.53
2022-11-15T21:35:26.474Z,30.43
2022-11-15T21:40:29.402Z,32.17
2022-11-15T21:45:33.918Z,28.40
2022-11-15T21:50:36.942Z,27.20
2022-11-15T21:55:40.442Z,30.40
2022-11-15T22:01:02.105Z,25.03
2022-11-15T22:06:06.966Z,18.40
2022-11-15T22:11:10.238Z,23.30
2022-11-15T22:16:14.651Z,25.13
2022-11-15T22:21:19.095Z,30.07
2022-11-15T22:26:24.073Z,33.53
2022-11-15T22:31:28.694Z,30.63
2022-11-15T22:36:46.831Z,28.20
2022-11-15T22:41:55.148Z,31.13
2022-11-15T22:46:59.511Z,28.20
2022-11-15T22:52:02.514Z,20.63
2022-11-15T22:57:05.607Z,25.20
2022-11-15T23:02:09.999Z,26.67
2022-11-15T23:07:13.135Z,23.47
2022-11-15T23:12:33.493Z,28.40
2022-11-15T23:17:38.303Z,31.13
2022-11-15T23:22:57.733Z,29.83
2022-11-15T23:28:02.738Z,22.10
2022-11-15T23:33:24.511Z,21.87
2022-11-15T23:38:27.548Z,28.97
2022-11-15T23:43:30.733Z,31.10
2022-11-15T23:48:35.435Z,30.07
2022-11-15T23:53:38.615Z,30.03
2022-11-15T23:58:42.320Z,30.33
